Aérodrome :
LOGIN :

S'inscrire | Disclaimer

   EN    FR    IT 

 










Légende :    VFR   VFR Marginal   IFR   IFR Intensif   IFR Très Intensif
Visi : 
Plafond : 
>= 8 km
>= 3000ft
5 à 8 km
1000 à 3000 ft
1500m à 5 km
500 à 1000 ft
800 à 1500m
200 à 500 ft
< 800m
< 200 ft
Symboles :   Orages  Brouillard  Fortes neiges  Fortes précipitations  Vent > 20 kt
SIGMETs :   Divers  Orages  Givrage  Turbulence  Onde Orograph.  Cendres Volcan.






- Altitude de l'aérodrome : 584 ft


LFPV - Villacoublay Vélizy

DERNIER METAR :
  • 220530Z AUTO 17003KT 9999 -RA FEW022/// OVC028/// ///CB 04/03 Q0992 BECMG BKN040

METARs EXPIRÉS :
  • 220500Z AUTO 00000KT 9999 -RA OVC027/// ///CB 04/02 Q0992 BECMG BKN040
  • 220430Z AUTO VRB01KT 9999 -RA BKN024/// OVC031/// ///CB 04/03 Q0991 BECMG BKN040
  • 220400Z AUTO 35003KT 9999 -RA BKN030/// BKN035/// OVC041/// ///CB 04/03 Q0991 BECMG BKN040
  • 220330Z AUTO 35005KT 310V020 9999 -RA FEW023/// SCT028/// BKN036/// ///CB 04/03 Q0991 BECMG BKN040
  • 220300Z AUTO 31005KT 9999 -RA FEW004/// BKN041/// BKN056/// ///CB 05/04 Q0991 TEMPO BKN012 BKN035

Prévision TAF périmée.



MET'MAP, la Météo Aéronautique d'un coup d'oeil ! - Copyright ORBIFLY Décembre 2007 - Disclaimer

ORBIFLY MET'MAP TEAM :

Programmation & Développement : Alexandra Zaïnal
Sur une idée originale de : Baudouin d'Aumeries
Assistance à la programmation : Marc-Olivier Méhu
Soutien technique & logistique : Manuel Goepfert

Contact : metmap@orbifly.com




SOURCES & CREDITS :

   NOAA